sensor_id;sensor_type;location;lat;lon;timestamp;temperature;humidity
12329;DHT22;6230;52.390;10.256;2023-02-15T00:01:15;7.20;74.10
12329;DHT22;6230;52.390;10.256;2023-02-15T00:03:41;7.20;74.20
12329;DHT22;6230;52.390;10.256;2023-02-15T00:06:06;7.20;74.20
12329;DHT22;6230;52.390;10.256;2023-02-15T00:08:32;7.20;74.40
12329;DHT22;6230;52.390;10.256;2023-02-15T00:11:27;7.10;74.40
12329;DHT22;6230;52.390;10.256;2023-02-15T00:14:10;7.10;74.70
12329;DHT22;6230;52.390;10.256;2023-02-15T00:16:36;7.10;74.40
12329;DHT22;6230;52.390;10.256;2023-02-15T00:19:02;7.00;74.40
12329;DHT22;6230;52.390;10.256;2023-02-15T00:21:30;7.00;74.50
12329;DHT22;6230;52.390;10.256;2023-02-15T00:23:57;7.00;74.60
12329;DHT22;6230;52.390;10.256;2023-02-15T00:26:23;6.90;74.60
12329;DHT22;6230;52.390;10.256;2023-02-15T00:28:49;6.90;74.60
12329;DHT22;6230;52.390;10.256;2023-02-15T00:31:14;6.90;74.60
12329;DHT22;6230;52.390;10.256;2023-02-15T00:33:40;6.90;74.60
12329;DHT22;6230;52.390;10.256;2023-02-15T00:36:07;6.90;74.50
12329;DHT22;6230;52.390;10.256;2023-02-15T00:38:34;7.00;74.30
12329;DHT22;6230;52.390;10.256;2023-02-15T00:41:02;7.10;74.00
12329;DHT22;6230;52.390;10.256;2023-02-15T00:43:30;7.10;73.70
12329;DHT22;6230;52.390;10.256;2023-02-15T00:45:56;7.20;73.50
12329;DHT22;6230;52.390;10.256;2023-02-15T00:48:21;7.20;73.40
12329;DHT22;6230;52.390;10.256;2023-02-15T00:50:50;7.20;73.30
12329;DHT22;6230;52.390;10.256;2023-02-15T00:53:16;7.30;73.10
12329;DHT22;6230;52.390;10.256;2023-02-15T00:55:42;7.30;72.80
12329;DHT22;6230;52.390;10.256;2023-02-15T00:58:08;7.40;72.60
12329;DHT22;6230;52.390;10.256;2023-02-15T01:00:35;7.40;72.40
12329;DHT22;6230;52.390;10.256;2023-02-15T01:03:00;7.40;72.20
12329;DHT22;6230;52.390;10.256;2023-02-15T01:05:26;7.40;72.00
12329;DHT22;6230;52.390;10.256;2023-02-15T01:07:52;7.30;71.90
12329;DHT22;6230;52.390;10.256;2023-02-15T01:10:17;7.30;71.90
12329;DHT22;6230;52.390;10.256;2023-02-15T01:12:43;7.20;71.90
12329;DHT22;6230;52.390;10.256;2023-02-15T01:15:09;7.10;72.10
12329;DHT22;6230;52.390;10.256;2023-02-15T01:17:35;7.00;72.30
12329;DHT22;6230;52.390;10.256;2023-02-15T01:20:00;6.90;72.70
12329;DHT22;6230;52.390;10.256;2023-02-15T01:22:26;6.80;73.10
12329;DHT22;6230;52.390;10.256;2023-02-15T01:24:52;6.80;73.50
12329;DHT22;6230;52.390;10.256;2023-02-15T01:27:18;6.70;73.60
12329;DHT22;6230;52.390;10.256;2023-02-15T01:29:43;6.70;73.70
12329;DHT22;6230;52.390;10.256;2023-02-15T01:32:09;6.70;73.70
12329;DHT22;6230;52.390;10.256;2023-02-15T01:34:34;6.70;73.60
12329;DHT22;6230;52.390;10.256;2023-02-15T01:37:00;6.70;73.70
12329;DHT22;6230;52.390;10.256;2023-02-15T01:39:25;6.70;73.80
12329;DHT22;6230;52.390;10.256;2023-02-15T01:41:51;6.70;73.90
12329;DHT22;6230;52.390;10.256;2023-02-15T01:44:45;6.60;73.90
12329;DHT22;6230;52.390;10.256;2023-02-15T01:47:13;6.60;74.10
12329;DHT22;6230;52.390;10.256;2023-02-15T01:49:42;6.60;73.90
12329;DHT22;6230;52.390;10.256;2023-02-15T01:52:10;6.60;73.90
12329;DHT22;6230;52.390;10.256;2023-02-15T01:54:39;6.60;73.90
12329;DHT22;6230;52.390;10.256;2023-02-15T01:57:09;6.60;73.80
12329;DHT22;6230;52.390;10.256;2023-02-15T01:59:37;6.50;73.90
12329;DHT22;6230;52.390;10.256;2023-02-15T02:02:06;6.50;74.00
12329;DHT22;6230;52.390;10.256;2023-02-15T02:04:38;6.40;74.10
12329;DHT22;6230;52.390;10.256;2023-02-15T02:07:06;6.30;74.20
12329;DHT22;6230;52.390;10.256;2023-02-15T02:09:32;6.20;74.30
12329;DHT22;6230;52.390;10.256;2023-02-15T02:11:58;6.20;74.40
12329;DHT22;6230;52.390;10.256;2023-02-15T02:14:24;6.20;74.40
12329;DHT22;6230;52.390;10.256;2023-02-15T02:16:52;6.20;74.40
12329;DHT22;6230;52.390;10.256;2023-02-15T02:25:24;6.20;74.10
12329;DHT22;6230;52.390;10.256;2023-02-15T02:31:11;6.10;74.00
12329;DHT22;6230;52.390;10.256;2023-02-15T02:39:21;5.90;74.10
12329;DHT22;6230;52.390;10.256;2023-02-15T02:42:02;5.80;74.30
12329;DHT22;6230;52.390;10.256;2023-02-15T02:44:43;5.80;74.50
12329;DHT22;6230;52.390;10.256;2023-02-15T02:47:15;5.80;74.50
12329;DHT22;6230;52.390;10.256;2023-02-15T02:49:43;5.80;74.30
12329;DHT22;6230;52.390;10.256;2023-02-15T02:52:39;5.90;74.10
12329;DHT22;6230;52.390;10.256;2023-02-15T02:55:22;5.80;74.10
12329;DHT22;6230;52.390;10.256;2023-02-15T03:00:32;5.60;74.30
12329;DHT22;6230;52.390;10.256;2023-02-15T03:03:05;5.50;74.30
12329;DHT22;6230;52.390;10.256;2023-02-15T03:05:34;5.40;75.10
12329;DHT22;6230;52.390;10.256;2023-02-15T03:08:02;5.40;74.40
12329;DHT22;6230;52.390;10.256;2023-02-15T03:10:32;5.40;74.50
12329;DHT22;6230;52.390;10.256;2023-02-15T03:13:00;5.40;74.50
12329;DHT22;6230;52.390;10.256;2023-02-15T03:15:31;5.30;74.30
12329;DHT22;6230;52.390;10.256;2023-02-15T03:18:22;5.30;74.30
12329;DHT22;6230;52.390;10.256;2023-02-15T03:20:49;5.20;74.20
12329;DHT22;6230;52.390;10.256;2023-02-15T03:23:20;5.20;74.40
12329;DHT22;6230;52.390;10.256;2023-02-15T03:25:52;5.10;74.50
12329;DHT22;6230;52.390;10.256;2023-02-15T03:28:38;5.10;74.70
12329;DHT22;6230;52.390;10.256;2023-02-15T03:31:07;5.00;74.80
12329;DHT22;6230;52.390;10.256;2023-02-15T03:33:37;5.00;74.80
12329;DHT22;6230;52.390;10.256;2023-02-15T03:36:15;5.00;74.90
12329;DHT22;6230;52.390;10.256;2023-02-15T03:41:27;5.00;75.00
12329;DHT22;6230;52.390;10.256;2023-02-15T03:44:05;5.00;74.90
12329;DHT22;6230;52.390;10.256;2023-02-15T03:46:40;5.00;74.90
12329;DHT22;6230;52.390;10.256;2023-02-15T03:49:17;5.00;74.90
12329;DHT22;6230;52.390;10.256;2023-02-15T03:51:47;5.00;75.00
12329;DHT22;6230;52.390;10.256;2023-02-15T03:54:15;5.00;75.00
12329;DHT22;6230;52.390;10.256;2023-02-15T03:57:07;5.00;75.00
12329;DHT22;6230;52.390;10.256;2023-02-15T03:59:52;4.90;75.00
12329;DHT22;6230;52.390;10.256;2023-02-15T04:05:25;5.00;74.90
12329;DHT22;6230;52.390;10.256;2023-02-15T04:07:51;5.10;74.60
12329;DHT22;6230;52.390;10.256;2023-02-15T04:10:16;5.10;74.50
12329;DHT22;6230;52.390;10.256;2023-02-15T04:13:00;5.10;74.50
12329;DHT22;6230;52.390;10.256;2023-02-15T04:15:26;5.00;74.40
12329;DHT22;6230;52.390;10.256;2023-02-15T04:18:10;5.10;74.40
12329;DHT22;6230;52.390;10.256;2023-02-15T04:20:35;5.10;74.30
12329;DHT22;6230;52.390;10.256;2023-02-15T04:23:19;5.10;74.10
12329;DHT22;6230;52.390;10.256;2023-02-15T04:26:04;5.20;74.10
12329;DHT22;6230;52.390;10.256;2023-02-15T04:28:30;5.20;73.90
12329;DHT22;6230;52.390;10.256;2023-02-15T04:30:55;5.30;73.80
12329;DHT22;6230;52.390;10.256;2023-02-15T04:33:21;5.30;73.60
12329;DHT22;6230;52.390;10.256;2023-02-15T04:35:46;5.40;73.40
12329;DHT22;6230;52.390;10.256;2023-02-15T04:38:12;5.40;73.30
12329;DHT22;6230;52.390;10.256;2023-02-15T04:40:37;5.30;73.30
12329;DHT22;6230;52.390;10.256;2023-02-15T04:43:03;5.30;73.40
12329;DHT22;6230;52.390;10.256;2023-02-15T04:45:29;5.20;73.30
12329;DHT22;6230;52.390;10.256;2023-02-15T04:47:54;5.20;73.30
12329;DHT22;6230;52.390;10.256;2023-02-15T04:50:20;5.20;73.30
12329;DHT22;6230;52.390;10.256;2023-02-15T04:52:46;5.10;73.30
12329;DHT22;6230;52.390;10.256;2023-02-15T04:55:12;5.00;73.40
12329;DHT22;6230;52.390;10.256;2023-02-15T04:57:38;5.00;73.50
12329;DHT22;6230;52.390;10.256;2023-02-15T05:00:04;5.00;73.60
12329;DHT22;6230;52.390;10.256;2023-02-15T05:02:29;5.00;73.50
12329;DHT22;6230;52.390;10.256;2023-02-15T05:04:55;5.00;73.50
12329;DHT22;6230;52.390;10.256;2023-02-15T05:07:20;4.90;73.50
12329;DHT22;6230;52.390;10.256;2023-02-15T05:09:46;5.00;73.50
12329;DHT22;6230;52.390;10.256;2023-02-15T05:12:11;5.00;73.40
12329;DHT22;6230;52.390;10.256;2023-02-15T05:14:37;5.00;74.10
12329;DHT22;6230;52.390;10.256;2023-02-15T05:17:03;4.90;73.30
12329;DHT22;6230;52.390;10.256;2023-02-15T05:19:30;4.90;73.30
12329;DHT22;6230;52.390;10.256;2023-02-15T05:21:56;4.80;73.30
12329;DHT22;6230;52.390;10.256;2023-02-15T05:24:21;4.80;73.40
12329;DHT22;6230;52.390;10.256;2023-02-15T05:27:06;4.80;73.40
12329;DHT22;6230;52.390;10.256;2023-02-15T05:29:50;4.90;73.40
12329;DHT22;6230;52.390;10.256;2023-02-15T05:32:16;4.90;73.30
12329;DHT22;6230;52.390;10.256;2023-02-15T05:34:41;4.90;73.20
12329;DHT22;6230;52.390;10.256;2023-02-15T05:37:07;4.90;73.20
12329;DHT22;6230;52.390;10.256;2023-02-15T05:39:33;4.80;73.10
12329;DHT22;6230;52.390;10.256;2023-02-15T05:42:01;4.80;73.10
12329;DHT22;6230;52.390;10.256;2023-02-15T05:44:27;4.80;73.10
12329;DHT22;6230;52.390;10.256;2023-02-15T05:46:52;4.80;73.10
12329;DHT22;6230;52.390;10.256;2023-02-15T05:49:18;4.90;73.10
12329;DHT22;6230;52.390;10.256;2023-02-15T05:51:44;4.90;73.00
12329;DHT22;6230;52.390;10.256;2023-02-15T05:54:09;5.00;72.90
12329;DHT22;6230;52.390;10.256;2023-02-15T05:56:35;5.00;72.80
12329;DHT22;6230;52.390;10.256;2023-02-15T05:59:00;5.00;72.60
12329;DHT22;6230;52.390;10.256;2023-02-15T06:01:26;5.10;72.50
12329;DHT22;6230;52.390;10.256;2023-02-15T06:03:51;5.10;72.30
12329;DHT22;6230;52.390;10.256;2023-02-15T06:06:17;5.10;72.20
12329;DHT22;6230;52.390;10.256;2023-02-15T06:08:43;5.20;72.10
12329;DHT22;6230;52.390;10.256;2023-02-15T06:11:08;5.20;72.00
12329;DHT22;6230;52.390;10.256;2023-02-15T06:13:35;5.20;71.80
12329;DHT22;6230;52.390;10.256;2023-02-15T06:16:00;5.20;71.70
12329;DHT22;6230;52.390;10.256;2023-02-15T06:18:26;5.20;71.70
12329;DHT22;6230;52.390;10.256;2023-02-15T06:20:52;5.20;71.70
12329;DHT22;6230;52.390;10.256;2023-02-15T06:23:17;5.20;71.70
12329;DHT22;6230;52.390;10.256;2023-02-15T06:25:45;5.10;71.60
12329;DHT22;6230;52.390;10.256;2023-02-15T06:28:11;5.00;71.80
12329;DHT22;6230;52.390;10.256;2023-02-15T06:30:36;5.00;72.00
12329;DHT22;6230;52.390;10.256;2023-02-15T06:33:02;4.90;72.00
12329;DHT22;6230;52.390;10.256;2023-02-15T06:35:27;4.90;72.10
12329;DHT22;6230;52.390;10.256;2023-02-15T06:37:53;4.90;72.00
12329;DHT22;6230;52.390;10.256;2023-02-15T06:40:19;4.80;72.00
12329;DHT22;6230;52.390;10.256;2023-02-15T06:42:44;4.80;72.00
12329;DHT22;6230;52.390;10.256;2023-02-15T06:45:10;4.70;72.00
12329;DHT22;6230;52.390;10.256;2023-02-15T06:47:36;4.60;72.20
12329;DHT22;6230;52.390;10.256;2023-02-15T06:50:06;4.60;72.30
12329;DHT22;6230;52.390;10.256;2023-02-15T06:52:31;4.50;72.40
12329;DHT22;6230;52.390;10.256;2023-02-15T06:54:57;4.50;72.60
12329;DHT22;6230;52.390;10.256;2023-02-15T06:57:23;4.40;72.60
12329;DHT22;6230;52.390;10.256;2023-02-15T06:59:48;4.50;72.70
12329;DHT22;6230;52.390;10.256;2023-02-15T07:02:14;4.40;72.60
12329;DHT22;6230;52.390;10.256;2023-02-15T07:04:39;4.40;72.70
12329;DHT22;6230;52.390;10.256;2023-02-15T07:07:08;4.40;72.80
12329;DHT22;6230;52.390;10.256;2023-02-15T07:09:34;4.40;72.90
12329;DHT22;6230;52.390;10.256;2023-02-15T07:12:00;4.40;73.00
12329;DHT22;6230;52.390;10.256;2023-02-15T07:14:44;4.40;73.00
12329;DHT22;6230;52.390;10.256;2023-02-15T07:17:09;4.40;73.00
12329;DHT22;6230;52.390;10.256;2023-02-15T07:19:35;4.40;73.10
12329;DHT22;6230;52.390;10.256;2023-02-15T07:22:00;4.40;73.10
12329;DHT22;6230;52.390;10.256;2023-02-15T07:24:26;4.50;73.20
12329;DHT22;6230;52.390;10.256;2023-02-15T07:26:51;4.50;73.10
12329;DHT22;6230;52.390;10.256;2023-02-15T07:29:17;4.60;73.10
12329;DHT22;6230;52.390;10.256;2023-02-15T07:31:43;4.60;73.10
12329;DHT22;6230;52.390;10.256;2023-02-15T07:34:11;4.70;73.10
12329;DHT22;6230;52.390;10.256;2023-02-15T07:36:36;4.80;73.00
12329;DHT22;6230;52.390;10.256;2023-02-15T07:39:02;4.90;73.00
12329;DHT22;6230;52.390;10.256;2023-02-15T07:41:27;5.00;72.80
12329;DHT22;6230;52.390;10.256;2023-02-15T07:43:53;5.10;72.80
12329;DHT22;6230;52.390;10.256;2023-02-15T07:46:19;5.10;72.60
12329;DHT22;6230;52.390;10.256;2023-02-15T07:48:46;5.20;72.60
12329;DHT22;6230;52.390;10.256;2023-02-15T07:51:12;5.20;73.40
12329;DHT22;6230;52.390;10.256;2023-02-15T07:53:39;5.30;72.80
12329;DHT22;6230;52.390;10.256;2023-02-15T07:56:09;5.30;72.70
12329;DHT22;6230;52.390;10.256;2023-02-15T07:58:35;5.40;72.70
12329;DHT22;6230;52.390;10.256;2023-02-15T08:01:29;5.40;72.80
12329;DHT22;6230;52.390;10.256;2023-02-15T08:03:56;5.40;72.80
12329;DHT22;6230;52.390;10.256;2023-02-15T08:06:23;5.40;72.80
12329;DHT22;6230;52.390;10.256;2023-02-15T08:08:49;5.50;72.90
12329;DHT22;6230;52.390;10.256;2023-02-15T08:11:18;5.50;72.90
12329;DHT22;6230;52.390;10.256;2023-02-15T08:14:13;5.60;72.90
12329;DHT22;6230;52.390;10.256;2023-02-15T08:16:46;5.70;72.90
12329;DHT22;6230;52.390;10.256;2023-02-15T08:19:18;5.80;73.00
12329;DHT22;6230;52.390;10.256;2023-02-15T08:21:49;5.80;73.00
12329;DHT22;6230;52.390;10.256;2023-02-15T08:24:17;5.80;73.20
12329;DHT22;6230;52.390;10.256;2023-02-15T08:26:43;5.90;73.30
12329;DHT22;6230;52.390;10.256;2023-02-15T08:29:12;5.90;73.40
12329;DHT22;6230;52.390;10.256;2023-02-15T08:31:38;6.00;73.60
12329;DHT22;6230;52.390;10.256;2023-02-15T08:34:06;6.00;73.70
12329;DHT22;6230;52.390;10.256;2023-02-15T08:36:32;6.10;73.80
12329;DHT22;6230;52.390;10.256;2023-02-15T08:38:59;6.10;73.90
12329;DHT22;6230;52.390;10.256;2023-02-15T08:41:27;6.20;74.00
12329;DHT22;6230;52.390;10.256;2023-02-15T08:43:54;6.20;74.00
12329;DHT22;6230;52.390;10.256;2023-02-15T08:46:22;6.30;74.10
12329;DHT22;6230;52.390;10.256;2023-02-15T08:48:49;6.30;74.20
12329;DHT22;6230;52.390;10.256;2023-02-15T08:51:26;6.40;74.30
12329;DHT22;6230;52.390;10.256;2023-02-15T08:53:53;6.40;74.30
12329;DHT22;6230;52.390;10.256;2023-02-15T08:56:23;6.50;74.30
12329;DHT22;6230;52.390;10.256;2023-02-15T08:58:49;6.50;74.30
12329;DHT22;6230;52.390;10.256;2023-02-15T09:01:18;6.60;74.30
12329;DHT22;6230;52.390;10.256;2023-02-15T09:03:46;6.60;74.30
12329;DHT22;6230;52.390;10.256;2023-02-15T09:06:12;6.70;74.40
12329;DHT22;6230;52.390;10.256;2023-02-15T09:08:38;6.70;74.50
12329;DHT22;6230;52.390;10.256;2023-02-15T09:11:14;6.80;74.70
12329;DHT22;6230;52.390;10.256;2023-02-15T09:13:47;6.80;74.80
12329;DHT22;6230;52.390;10.256;2023-02-15T09:16:13;6.90;74.80
12329;DHT22;6230;52.390;10.256;2023-02-15T09:18:39;7.00;74.80
12329;DHT22;6230;52.390;10.256;2023-02-15T09:21:24;7.00;74.70
12329;DHT22;6230;52.390;10.256;2023-02-15T09:23:52;7.10;74.80
12329;DHT22;6230;52.390;10.256;2023-02-15T09:26:21;7.20;74.80
12329;DHT22;6230;52.390;10.256;2023-02-15T09:28:47;7.30;74.70
12329;DHT22;6230;52.390;10.256;2023-02-15T09:31:19;7.40;74.70
12329;DHT22;6230;52.390;10.256;2023-02-15T09:33:46;7.50;74.90
12329;DHT22;6230;52.390;10.256;2023-02-15T09:36:24;7.60;74.90
12329;DHT22;6230;52.390;10.256;2023-02-15T09:39:11;7.70;74.80
12329;DHT22;6230;52.390;10.256;2023-02-15T09:48:01;7.90;74.60
12329;DHT22;6230;52.390;10.256;2023-02-15T09:50:19;8.00;74.50
12329;DHT22;6230;52.390;10.256;2023-02-15T09:53:06;8.10;74.30
12329;DHT22;6230;52.390;10.256;2023-02-15T09:58:14;8.30;74.20
12329;DHT22;6230;52.390;10.256;2023-02-15T10:01:11;8.40;74.00
12329;DHT22;6230;52.390;10.256;2023-02-15T10:09:55;9.00;74.00
12329;DHT22;6230;52.390;10.256;2023-02-15T10:15:31;9.60;73.80
12329;DHT22;6230;52.390;10.256;2023-02-15T10:18:15;9.90;73.50
12329;DHT22;6230;52.390;10.256;2023-02-15T10:28:44;11.10;72.00
12329;DHT22;6230;52.390;10.256;2023-02-15T10:31:44;11.30;71.10
12329;DHT22;6230;52.390;10.256;2023-02-15T10:34:38;11.60;70.90
12329;DHT22;6230;52.390;10.256;2023-02-15T10:37:29;11.90;70.50
12329;DHT22;6230;52.390;10.256;2023-02-15T10:40:41;12.20;70.00
12329;DHT22;6230;52.390;10.256;2023-02-15T10:43:30;12.40;69.00
12329;DHT22;6230;52.390;10.256;2023-02-15T10:49:01;12.70;68.60
12329;DHT22;6230;52.390;10.256;2023-02-15T10:51:39;12.80;68.00
12329;DHT22;6230;52.390;10.256;2023-02-15T10:57:36;13.20;67.00
12329;DHT22;6230;52.390;10.256;2023-02-15T11:00:14;13.30;67.90
12329;DHT22;6230;52.390;10.256;2023-02-15T11:03:05;13.50;65.80
12329;DHT22;6230;52.390;10.256;2023-02-15T11:08:24;13.80;65.20
12329;DHT22;6230;52.390;10.256;2023-02-15T11:10:58;13.90;65.30
12329;DHT22;6230;52.390;10.256;2023-02-15T11:13:31;14.10;64.50
12329;DHT22;6230;52.390;10.256;2023-02-15T11:16:15;14.20;64.10
12329;DHT22;6230;52.390;10.256;2023-02-15T11:18:49;14.40;63.40
12329;DHT22;6230;52.390;10.256;2023-02-15T11:21:42;14.50;63.20
12329;DHT22;6230;52.390;10.256;2023-02-15T11:24:19;14.60;61.80
12329;DHT22;6230;52.390;10.256;2023-02-15T11:27:24;14.70;62.00
12329;DHT22;6230;52.390;10.256;2023-02-15T11:30:04;14.80;61.60
12329;DHT22;6230;52.390;10.256;2023-02-15T11:32:32;14.90;61.60
12329;DHT22;6230;52.390;10.256;2023-02-15T11:35:10;14.90;61.50
12329;DHT22;6230;52.390;10.256;2023-02-15T11:37:50;15.10;61.10
12329;DHT22;6230;52.390;10.256;2023-02-15T11:40:30;15.20;60.70
12329;DHT22;6230;52.390;10.256;2023-02-15T11:43:00;15.30;60.70
12329;DHT22;6230;52.390;10.256;2023-02-15T11:45:29;15.60;60.20
12329;DHT22;6230;52.390;10.256;2023-02-15T11:47:57;15.60;59.60
12329;DHT22;6230;52.390;10.256;2023-02-15T11:50:25;15.60;59.30
12329;DHT22;6230;52.390;10.256;2023-02-15T11:52:54;15.70;59.10
12329;DHT22;6230;52.390;10.256;2023-02-15T11:55:23;15.80;58.90
12329;DHT22;6230;52.390;10.256;2023-02-15T11:57:57;15.90;58.50
12329;DHT22;6230;52.390;10.256;2023-02-15T12:00:43;15.90;58.20
12329;DHT22;6230;52.390;10.256;2023-02-15T12:03:37;15.90;57.60
12329;DHT22;6230;52.390;10.256;2023-02-15T12:06:05;16.00;57.70
12329;DHT22;6230;52.390;10.256;2023-02-15T12:08:43;16.10;58.20
12329;DHT22;6230;52.390;10.256;2023-02-15T12:11:15;16.20;57.80
12329;DHT22;6230;52.390;10.256;2023-02-15T12:14:00;16.40;57.60
12329;DHT22;6230;52.390;10.256;2023-02-15T12:16:28;16.70;56.70
12329;DHT22;6230;52.390;10.256;2023-02-15T12:18:59;16.80;56.70
12329;DHT22;6230;52.390;10.256;2023-02-15T12:21:34;17.00;56.30
12329;DHT22;6230;52.390;10.256;2023-02-15T12:24:20;17.10;55.80
12329;DHT22;6230;52.390;10.256;2023-02-15T12:27:05;17.20;55.70
12329;DHT22;6230;52.390;10.256;2023-02-15T12:29:39;17.40;55.50
12329;DHT22;6230;52.390;10.256;2023-02-15T12:32:11;17.50;55.50
12329;DHT22;6230;52.390;10.256;2023-02-15T12:34:38;17.70;55.50
12329;DHT22;6230;52.390;10.256;2023-02-15T12:37:17;17.90;55.10
12329;DHT22;6230;52.390;10.256;2023-02-15T12:39:57;18.00;54.30
12329;DHT22;6230;52.390;10.256;2023-02-15T12:42:24;18.20;53.90
12329;DHT22;6230;52.390;10.256;2023-02-15T12:45:23;18.30;54.00
12329;DHT22;6230;52.390;10.256;2023-02-15T12:50:33;18.50;52.90
12329;DHT22;6230;52.390;10.256;2023-02-15T12:53:15;18.60;53.40
12329;DHT22;6230;52.390;10.256;2023-02-15T12:56:08;18.70;52.40
12329;DHT22;6230;52.390;10.256;2023-02-15T12:58:41;18.70;51.80
12329;DHT22;6230;52.390;10.256;2023-02-15T13:01:14;18.50;51.90
12329;DHT22;6230;52.390;10.256;2023-02-15T13:04:03;18.40;52.20
12329;DHT22;6230;52.390;10.256;2023-02-15T13:06:32;18.40;51.60
12329;DHT22;6230;52.390;10.256;2023-02-15T13:09:06;18.30;52.30
12329;DHT22;6230;52.390;10.256;2023-02-15T13:11:32;18.40;52.50
12329;DHT22;6230;52.390;10.256;2023-02-15T13:14:00;18.40;52.10
12329;DHT22;6230;52.390;10.256;2023-02-15T13:16:37;18.40;52.10
12329;DHT22;6230;52.390;10.256;2023-02-15T13:19:33;18.50;51.90
12329;DHT22;6230;52.390;10.256;2023-02-15T13:22:06;18.60;51.50
12329;DHT22;6230;52.390;10.256;2023-02-15T13:24:52;18.50;51.60
12329;DHT22;6230;52.390;10.256;2023-02-15T13:27:21;18.40;51.30
12329;DHT22;6230;52.390;10.256;2023-02-15T13:29:57;18.30;51.40
12329;DHT22;6230;52.390;10.256;2023-02-15T13:32:41;18.20;51.20
12329;DHT22;6230;52.390;10.256;2023-02-15T13:35:15;18.20;51.00
12329;DHT22;6230;52.390;10.256;2023-02-15T13:40:33;18.20;50.70
12329;DHT22;6230;52.390;10.256;2023-02-15T13:48:47;18.50;50.70
12329;DHT22;6230;52.390;10.256;2023-02-15T13:51:49;18.60;50.40
12329;DHT22;6230;52.390;10.256;2023-02-15T14:00:22;19.30;50.20
12329;DHT22;6230;52.390;10.256;2023-02-15T14:08:42;18.80;50.30
12329;DHT22;6230;52.390;10.256;2023-02-15T14:32:45;17.80;50.90
12329;DHT22;6230;52.390;10.256;2023-02-15T14:35:22;17.40;51.20
12329;DHT22;6230;52.390;10.256;2023-02-15T14:41:00;16.70;51.60
12329;DHT22;6230;52.390;10.256;2023-02-15T14:46:34;16.10;52.30
12329;DHT22;6230;52.390;10.256;2023-02-15T15:04:34;15.00;53.70
12329;DHT22;6230;52.390;10.256;2023-02-15T15:09:36;14.70;53.80
12329;DHT22;6230;52.390;10.256;2023-02-15T15:14:46;14.60;54.20
12329;DHT22;6230;52.390;10.256;2023-02-15T15:22:42;14.40;54.50
12329;DHT22;6230;52.390;10.256;2023-02-15T15:25:43;14.30;54.70
12329;DHT22;6230;52.390;10.256;2023-02-15T15:33:42;14.20;55.00
12329;DHT22;6230;52.390;10.256;2023-02-15T15:50:12;13.80;55.40
12329;DHT22;6230;52.390;10.256;2023-02-15T15:52:38;13.80;55.50
12329;DHT22;6230;52.390;10.256;2023-02-15T15:55:19;13.70;55.60
12329;DHT22;6230;52.390;10.256;2023-02-15T15:57:47;13.70;55.70
12329;DHT22;6230;52.390;10.256;2023-02-15T16:00:36;13.60;55.70
12329;DHT22;6230;52.390;10.256;2023-02-15T16:03:04;13.60;55.80
12329;DHT22;6230;52.390;10.256;2023-02-15T16:05:37;13.50;55.80
12329;DHT22;6230;52.390;10.256;2023-02-15T16:08:03;13.50;55.90
12329;DHT22;6230;52.390;10.256;2023-02-15T16:10:29;13.50;55.90
12329;DHT22;6230;52.390;10.256;2023-02-15T16:12:57;13.40;55.90
12329;DHT22;6230;52.390;10.256;2023-02-15T16:15:27;13.40;56.00
12329;DHT22;6230;52.390;10.256;2023-02-15T16:17:57;13.30;56.00
12329;DHT22;6230;52.390;10.256;2023-02-15T16:20:32;13.30;56.10
12329;DHT22;6230;52.390;10.256;2023-02-15T16:26:07;13.20;56.20
12329;DHT22;6230;52.390;10.256;2023-02-15T16:28:34;13.10;56.30
12329;DHT22;6230;52.390;10.256;2023-02-15T16:31:12;13.10;56.30
12329;DHT22;6230;52.390;10.256;2023-02-15T16:33:39;13.10;56.30
12329;DHT22;6230;52.390;10.256;2023-02-15T16:36:06;13.00;56.30
12329;DHT22;6230;52.390;10.256;2023-02-15T16:41:17;12.90;56.40
12329;DHT22;6230;52.390;10.256;2023-02-15T16:43:47;12.90;56.50
12329;DHT22;6230;52.390;10.256;2023-02-15T16:46:24;12.90;56.60
12329;DHT22;6230;52.390;10.256;2023-02-15T16:48:52;12.80;56.60
12329;DHT22;6230;52.390;10.256;2023-02-15T16:51:31;12.80;56.60
12329;DHT22;6230;52.390;10.256;2023-02-15T16:54:05;12.70;56.90
12329;DHT22;6230;52.390;10.256;2023-02-15T16:56:32;12.70;56.90
12329;DHT22;6230;52.390;10.256;2023-02-15T16:58:58;12.60;56.90
12329;DHT22;6230;52.390;10.256;2023-02-15T17:01:27;12.50;57.00
12329;DHT22;6230;52.390;10.256;2023-02-15T17:07:18;12.40;57.20
12329;DHT22;6230;52.390;10.256;2023-02-15T17:09:55;12.30;57.20
12329;DHT22;6230;52.390;10.256;2023-02-15T17:12:47;12.30;57.30
12329;DHT22;6230;52.390;10.256;2023-02-15T17:15:37;12.20;57.40
12329;DHT22;6230;52.390;10.256;2023-02-15T17:18:14;12.10;57.50
12329;DHT22;6230;52.390;10.256;2023-02-15T17:20:41;12.10;57.50
12329;DHT22;6230;52.390;10.256;2023-02-15T17:23:34;12.10;57.60
12329;DHT22;6230;52.390;10.256;2023-02-15T17:26:10;12.00;57.70
12329;DHT22;6230;52.390;10.256;2023-02-15T17:28:37;12.00;57.70
12329;DHT22;6230;52.390;10.256;2023-02-15T17:31:06;12.10;57.80
12329;DHT22;6230;52.390;10.256;2023-02-15T17:36:09;12.00;57.80
12329;DHT22;6230;52.390;10.256;2023-02-15T17:38:36;12.00;57.80
12329;DHT22;6230;52.390;10.256;2023-02-15T17:41:02;12.00;57.80
12329;DHT22;6230;52.390;10.256;2023-02-15T17:43:27;11.90;57.80
12329;DHT22;6230;52.390;10.256;2023-02-15T17:45:53;11.90;57.90
12329;DHT22;6230;52.390;10.256;2023-02-15T17:48:32;11.90;58.00
12329;DHT22;6230;52.390;10.256;2023-02-15T17:51:00;11.80;58.10
12329;DHT22;6230;52.390;10.256;2023-02-15T17:53:26;11.70;58.20
12329;DHT22;6230;52.390;10.256;2023-02-15T17:55:52;11.70;58.30
12329;DHT22;6230;52.390;10.256;2023-02-15T17:58:18;11.60;58.30
12329;DHT22;6230;52.390;10.256;2023-02-15T18:00:50;11.60;58.50
12329;DHT22;6230;52.390;10.256;2023-02-15T18:06:26;11.50;58.70
12329;DHT22;6230;52.390;10.256;2023-02-15T18:09:15;11.40;58.70
12329;DHT22;6230;52.390;10.256;2023-02-15T18:12:00;11.30;58.80
12329;DHT22;6230;52.390;10.256;2023-02-15T18:14:26;11.30;58.90
12329;DHT22;6230;52.390;10.256;2023-02-15T18:16:52;11.20;59.00
12329;DHT22;6230;52.390;10.256;2023-02-15T18:19:22;11.10;59.00
12329;DHT22;6230;52.390;10.256;2023-02-15T18:21:48;11.10;59.20
12329;DHT22;6230;52.390;10.256;2023-02-15T18:24:22;11.10;59.30
12329;DHT22;6230;52.390;10.256;2023-02-15T18:26:49;11.00;59.20
12329;DHT22;6230;52.390;10.256;2023-02-15T18:29:14;11.00;59.30
12329;DHT22;6230;52.390;10.256;2023-02-15T18:31:40;10.90;59.40
12329;DHT22;6230;52.390;10.256;2023-02-15T18:34:24;10.90;59.40
12329;DHT22;6230;52.390;10.256;2023-02-15T18:36:52;10.80;59.50
12329;DHT22;6230;52.390;10.256;2023-02-15T18:39:34;10.80;59.50
12329;DHT22;6230;52.390;10.256;2023-02-15T18:42:02;10.80;59.60
12329;DHT22;6230;52.390;10.256;2023-02-15T18:44:28;10.70;59.60
12329;DHT22;6230;52.390;10.256;2023-02-15T18:46:54;10.70;59.70
12329;DHT22;6230;52.390;10.256;2023-02-15T18:49:20;10.60;59.70
12329;DHT22;6230;52.390;10.256;2023-02-15T18:51:45;10.60;59.70
12329;DHT22;6230;52.390;10.256;2023-02-15T18:54:20;10.60;59.70
12329;DHT22;6230;52.390;10.256;2023-02-15T18:56:52;10.60;59.70